sensor_id;sensor_type;location;lat;lon;timestamp;P1;durP1;ratioP1;P2;durP2;ratioP2
68315;SDS011;55508;54.368;18.406;2022-09-09T00:01:28;4.95;;;1.48;;
68315;SDS011;55508;54.368;18.406;2022-09-09T00:04:15;2.90;;;1.42;;
68315;SDS011;55508;54.368;18.406;2022-09-09T00:12:37;4.95;;;1.40;;
68315;SDS011;55508;54.368;18.406;2022-09-09T00:18:25;2.58;;;1.20;;
68315;SDS011;55508;54.368;18.406;2022-09-09T00:20:49;6.18;;;1.60;;
68315;SDS011;55508;54.368;18.406;2022-09-09T00:28:39;1.63;;;1.52;;
68315;SDS011;55508;54.368;18.406;2022-09-09T00:31:15;1.33;;;1.20;;
68315;SDS011;55508;54.368;18.406;2022-09-09T00:33:45;3.53;;;1.20;;
68315;SDS011;55508;54.368;18.406;2022-09-09T00:36:14;42.42;;;3.00;;
68315;SDS011;55508;54.368;18.406;2022-09-09T00:38:52;3.65;;;1.30;;
68315;SDS011;55508;54.368;18.406;2022-09-09T00:41:34;5.15;;;1.83;;
68315;SDS011;55508;54.368;18.406;2022-09-09T00:57:59;3.92;;;1.20;;
68315;SDS011;55508;54.368;18.406;2022-09-09T01:00:27;4.30;;;1.35;;
68315;SDS011;55508;54.368;18.406;2022-09-09T01:05:44;2.28;;;1.35;;
68315;SDS011;55508;54.368;18.406;2022-09-09T01:08:40;2.17;;;1.33;;
68315;SDS011;55508;54.368;18.406;2022-09-09T01:11:05;9.32;;;1.83;;
68315;SDS011;55508;54.368;18.406;2022-09-09T01:13:39;4.05;;;1.42;;
68315;SDS011;55508;54.368;18.406;2022-09-09T01:16:10;2.55;;;1.38;;
68315;SDS011;55508;54.368;18.406;2022-09-09T01:18:46;1.20;;;1.00;;
68315;SDS011;55508;54.368;18.406;2022-09-09T01:27:12;2.72;;;1.48;;
68315;SDS011;55508;54.368;18.406;2022-09-09T01:29:40;2.25;;;1.20;;
68315;SDS011;55508;54.368;18.406;2022-09-09T01:38:20;2.38;;;1.60;;
68315;SDS011;55508;54.368;18.406;2022-09-09T01:40:51;2.13;;;1.30;;
68315;SDS011;55508;54.368;18.406;2022-09-09T01:43:22;1.48;;;1.10;;
68315;SDS011;55508;54.368;18.406;2022-09-09T01:45:52;1.85;;;1.10;;
68315;SDS011;55508;54.368;18.406;2022-09-09T01:48:21;3.42;;;1.42;;
68315;SDS011;55508;54.368;18.406;2022-09-09T01:51:01;5.80;;;1.50;;
68315;SDS011;55508;54.368;18.406;2022-09-09T01:53:29;3.35;;;1.40;;
68315;SDS011;55508;54.368;18.406;2022-09-09T01:58:45;1.75;;;1.00;;
68315;SDS011;55508;54.368;18.406;2022-09-09T02:01:20;3.65;;;1.33;;
68315;SDS011;55508;54.368;18.406;2022-09-09T02:03:57;3.90;;;1.10;;
68315;SDS011;55508;54.368;18.406;2022-09-09T02:06:26;2.53;;;1.38;;
68315;SDS011;55508;54.368;18.406;2022-09-09T02:09:01;3.95;;;1.20;;
68315;SDS011;55508;54.368;18.406;2022-09-09T02:11:31;1.67;;;1.58;;
68315;SDS011;55508;54.368;18.406;2022-09-09T02:14:07;3.15;;;1.20;;
68315;SDS011;55508;54.368;18.406;2022-09-09T02:16:42;2.40;;;1.50;;
68315;SDS011;55508;54.368;18.406;2022-09-09T02:22:05;3.88;;;1.20;;
68315;SDS011;55508;54.368;18.406;2022-09-09T02:24:36;2.70;;;1.17;;
68315;SDS011;55508;54.368;18.406;2022-09-09T02:27:21;4.13;;;1.30;;
68315;SDS011;55508;54.368;18.406;2022-09-09T02:29:49;3.67;;;1.42;;
68315;SDS011;55508;54.368;18.406;2022-09-09T02:32:25;8.02;;;1.70;;
68315;SDS011;55508;54.368;18.406;2022-09-09T02:35:00;1.90;;;1.20;;
68315;SDS011;55508;54.368;18.406;2022-09-09T02:37:35;3.28;;;1.20;;
68315;SDS011;55508;54.368;18.406;2022-09-09T02:40:05;6.55;;;1.40;;
68315;SDS011;55508;54.368;18.406;2022-09-09T02:42:40;2.22;;;1.25;;
68315;SDS011;55508;54.368;18.406;2022-09-09T02:45:09;3.28;;;1.40;;
68315;SDS011;55508;54.368;18.406;2022-09-09T02:47:47;2.80;;;1.27;;
68315;SDS011;55508;54.368;18.406;2022-09-09T02:50:35;3.30;;;1.40;;
68315;SDS011;55508;54.368;18.406;2022-09-09T02:53:18;2.45;;;1.42;;
68315;SDS011;55508;54.368;18.406;2022-09-09T02:55:52;5.20;;;1.73;;
68315;SDS011;55508;54.368;18.406;2022-09-09T02:58:22;4.25;;;1.80;;
68315;SDS011;55508;54.368;18.406;2022-09-09T03:01:01;2.95;;;1.55;;
68315;SDS011;55508;54.368;18.406;2022-09-09T03:03:30;5.35;;;1.60;;
68315;SDS011;55508;54.368;18.406;2022-09-09T03:06:02;2.70;;;1.48;;
68315;SDS011;55508;54.368;18.406;2022-09-09T03:08:29;2.13;;;1.58;;
68315;SDS011;55508;54.368;18.406;2022-09-09T03:11:00;3.95;;;1.58;;
68315;SDS011;55508;54.368;18.406;2022-09-09T03:13:31;2.63;;;1.58;;
68315;SDS011;55508;54.368;18.406;2022-09-09T03:15:58;1.83;;;1.42;;
68315;SDS011;55508;54.368;18.406;2022-09-09T03:18:28;3.08;;;1.80;;
68315;SDS011;55508;54.368;18.406;2022-09-09T03:20:56;1.75;;;1.40;;
68315;SDS011;55508;54.368;18.406;2022-09-09T03:23:27;2.35;;;1.60;;
68315;SDS011;55508;54.368;18.406;2022-09-09T03:25:56;3.38;;;1.40;;
68315;SDS011;55508;54.368;18.406;2022-09-09T03:28:34;6.47;;;1.77;;
68315;SDS011;55508;54.368;18.406;2022-09-09T03:31:03;2.33;;;1.70;;
68315;SDS011;55508;54.368;18.406;2022-09-09T03:33:38;3.97;;;2.10;;
68315;SDS011;55508;54.368;18.406;2022-09-09T03:36:10;1.90;;;1.70;;
68315;SDS011;55508;54.368;18.406;2022-09-09T03:38:38;6.03;;;1.80;;
68315;SDS011;55508;54.368;18.406;2022-09-09T03:41:05;2.45;;;2.00;;
68315;SDS011;55508;54.368;18.406;2022-09-09T03:43:35;4.03;;;1.92;;
68315;SDS011;55508;54.368;18.406;2022-09-09T03:46:03;6.72;;;2.90;;
68315;SDS011;55508;54.368;18.406;2022-09-09T03:48:30;3.42;;;2.33;;
68315;SDS011;55508;54.368;18.406;2022-09-09T03:50:58;7.43;;;2.80;;
68315;SDS011;55508;54.368;18.406;2022-09-09T03:53:30;7.20;;;2.92;;
68315;SDS011;55508;54.368;18.406;2022-09-09T03:55:59;4.07;;;3.03;;
68315;SDS011;55508;54.368;18.406;2022-09-09T03:58:28;8.05;;;3.17;;
68315;SDS011;55508;54.368;18.406;2022-09-09T04:01:11;4.63;;;3.88;;
68315;SDS011;55508;54.368;18.406;2022-09-09T04:03:45;5.97;;;3.38;;
68315;SDS011;55508;54.368;18.406;2022-09-09T04:06:13;4.53;;;3.78;;
68315;SDS011;55508;54.368;18.406;2022-09-09T04:08:44;5.72;;;3.67;;
68315;SDS011;55508;54.368;18.406;2022-09-09T04:11:13;8.13;;;4.15;;
68315;SDS011;55508;54.368;18.406;2022-09-09T04:13:40;6.35;;;4.00;;
68315;SDS011;55508;54.368;18.406;2022-09-09T04:16:11;10.65;;;4.38;;
68315;SDS011;55508;54.368;18.406;2022-09-09T04:18:41;5.18;;;4.03;;
68315;SDS011;55508;54.368;18.406;2022-09-09T04:21:09;12.30;;;4.22;;
68315;SDS011;55508;54.368;18.406;2022-09-09T04:23:37;6.63;;;4.53;;
68315;SDS011;55508;54.368;18.406;2022-09-09T04:26:04;7.63;;;4.47;;
68315;SDS011;55508;54.368;18.406;2022-09-09T04:28:33;5.20;;;3.85;;
68315;SDS011;55508;54.368;18.406;2022-09-09T04:31:05;5.40;;;3.75;;
68315;SDS011;55508;54.368;18.406;2022-09-09T04:33:35;4.38;;;3.90;;
68315;SDS011;55508;54.368;18.406;2022-09-09T04:38:35;5.18;;;4.25;;
68315;SDS011;55508;54.368;18.406;2022-09-09T04:41:03;4.43;;;4.00;;
68315;SDS011;55508;54.368;18.406;2022-09-09T04:43:33;5.47;;;4.97;;
68315;SDS011;55508;54.368;18.406;2022-09-09T04:46:04;6.00;;;4.90;;
68315;SDS011;55508;54.368;18.406;2022-09-09T04:48:32;5.90;;;4.60;;
68315;SDS011;55508;54.368;18.406;2022-09-09T04:51:02;5.15;;;4.70;;
68315;SDS011;55508;54.368;18.406;2022-09-09T04:53:32;9.07;;;4.35;;
68315;SDS011;55508;54.368;18.406;2022-09-09T04:58:32;5.28;;;4.25;;
68315;SDS011;55508;54.368;18.406;2022-09-09T05:01:33;8.63;;;4.57;;
68315;SDS011;55508;54.368;18.406;2022-09-09T05:04:00;6.28;;;4.68;;
68315;SDS011;55508;54.368;18.406;2022-09-09T05:06:27;6.13;;;4.47;;
68315;SDS011;55508;54.368;18.406;2022-09-09T05:08:59;6.50;;;4.47;;
68315;SDS011;55508;54.368;18.406;2022-09-09T05:11:29;5.10;;;4.70;;
68315;SDS011;55508;54.368;18.406;2022-09-09T05:14:17;6.50;;;5.10;;
68315;SDS011;55508;54.368;18.406;2022-09-09T05:16:44;5.18;;;4.72;;
68315;SDS011;55508;54.368;18.406;2022-09-09T05:19:12;4.75;;;4.35;;
68315;SDS011;55508;54.368;18.406;2022-09-09T05:21:46;5.53;;;5.03;;
68315;SDS011;55508;54.368;18.406;2022-09-09T05:24:16;5.03;;;4.53;;
68315;SDS011;55508;54.368;18.406;2022-09-09T05:26:45;4.97;;;4.22;;
68315;SDS011;55508;54.368;18.406;2022-09-09T05:29:12;5.43;;;4.30;;
68315;SDS011;55508;54.368;18.406;2022-09-09T05:31:39;4.95;;;3.55;;
68315;SDS011;55508;54.368;18.406;2022-09-09T05:34:13;5.13;;;3.88;;
68315;SDS011;55508;54.368;18.406;2022-09-09T05:36:40;4.25;;;3.95;;
68315;SDS011;55508;54.368;18.406;2022-09-09T05:39:07;6.88;;;3.60;;
68315;SDS011;55508;54.368;18.406;2022-09-09T05:41:34;4.18;;;3.80;;
68315;SDS011;55508;54.368;18.406;2022-09-09T05:44:03;3.78;;;3.47;;
68315;SDS011;55508;54.368;18.406;2022-09-09T05:46:34;6.47;;;3.90;;
68315;SDS011;55508;54.368;18.406;2022-09-09T05:49:01;5.93;;;3.63;;
68315;SDS011;55508;54.368;18.406;2022-09-09T05:51:31;5.43;;;4.05;;
68315;SDS011;55508;54.368;18.406;2022-09-09T05:54:03;4.15;;;3.75;;
68315;SDS011;55508;54.368;18.406;2022-09-09T05:56:34;4.32;;;4.00;;
68315;SDS011;55508;54.368;18.406;2022-09-09T05:59:01;4.47;;;4.00;;
68315;SDS011;55508;54.368;18.406;2022-09-09T06:01:29;7.35;;;4.03;;
68315;SDS011;55508;54.368;18.406;2022-09-09T06:04:01;8.05;;;3.35;;
68315;SDS011;55508;54.368;18.406;2022-09-09T06:06:30;4.80;;;3.40;;
68315;SDS011;55508;54.368;18.406;2022-09-09T06:09:05;4.22;;;3.70;;
68315;SDS011;55508;54.368;18.406;2022-09-09T06:11:38;3.92;;;3.53;;
68315;SDS011;55508;54.368;18.406;2022-09-09T06:14:06;4.65;;;4.15;;
68315;SDS011;55508;54.368;18.406;2022-09-09T06:16:34;4.00;;;3.60;;
68315;SDS011;55508;54.368;18.406;2022-09-09T06:19:10;4.30;;;3.85;;
68315;SDS011;55508;54.368;18.406;2022-09-09T06:21:40;4.13;;;3.75;;
68315;SDS011;55508;54.368;18.406;2022-09-09T06:24:08;2.70;;;2.50;;
68315;SDS011;55508;54.368;18.406;2022-09-09T06:26:37;3.60;;;2.97;;
68315;SDS011;55508;54.368;18.406;2022-09-09T06:29:11;3.55;;;3.25;;
68315;SDS011;55508;54.368;18.406;2022-09-09T06:31:40;2.70;;;2.28;;
68315;SDS011;55508;54.368;18.406;2022-09-09T06:34:26;3.67;;;2.78;;
68315;SDS011;55508;54.368;18.406;2022-09-09T06:36:56;3.08;;;2.80;;
68315;SDS011;55508;54.368;18.406;2022-09-09T06:39:31;3.13;;;2.80;;
68315;SDS011;55508;54.368;18.406;2022-09-09T06:41:58;3.63;;;2.63;;
68315;SDS011;55508;54.368;18.406;2022-09-09T06:44:44;3.40;;;3.00;;
68315;SDS011;55508;54.368;18.406;2022-09-09T06:47:17;4.15;;;2.80;;
68315;SDS011;55508;54.368;18.406;2022-09-09T06:49:45;4.25;;;2.83;;
68315;SDS011;55508;54.368;18.406;2022-09-09T06:52:15;3.05;;;2.85;;
68315;SDS011;55508;54.368;18.406;2022-09-09T06:54:45;6.10;;;3.10;;
68315;SDS011;55508;54.368;18.406;2022-09-09T06:57:14;5.70;;;3.13;;
68315;SDS011;55508;54.368;18.406;2022-09-09T07:00:01;5.30;;;3.40;;
68315;SDS011;55508;54.368;18.406;2022-09-09T07:02:29;3.80;;;3.45;;
68315;SDS011;55508;54.368;18.406;2022-09-09T07:04:59;4.75;;;3.35;;
68315;SDS011;55508;54.368;18.406;2022-09-09T07:07:26;4.60;;;3.50;;
68315;SDS011;55508;54.368;18.406;2022-09-09T07:09:55;4.90;;;3.40;;
68315;SDS011;55508;54.368;18.406;2022-09-09T07:12:22;3.25;;;2.95;;
68315;SDS011;55508;54.368;18.406;2022-09-09T07:14:54;4.70;;;3.83;;
68315;SDS011;55508;54.368;18.406;2022-09-09T07:17:21;3.10;;;2.85;;
68315;SDS011;55508;54.368;18.406;2022-09-09T07:19:49;3.33;;;3.03;;
68315;SDS011;55508;54.368;18.406;2022-09-09T07:22:16;5.60;;;3.58;;
68315;SDS011;55508;54.368;18.406;2022-09-09T07:24:44;3.63;;;3.33;;
68315;SDS011;55508;54.368;18.406;2022-09-09T07:27:12;3.63;;;3.33;;
68315;SDS011;55508;54.368;18.406;2022-09-09T07:29:40;3.90;;;3.30;;
68315;SDS011;55508;54.368;18.406;2022-09-09T07:32:08;3.60;;;3.28;;
68315;SDS011;55508;54.368;18.406;2022-09-09T07:34:37;3.20;;;3.00;;
68315;SDS011;55508;54.368;18.406;2022-09-09T07:37:04;3.83;;;3.22;;
68315;SDS011;55508;54.368;18.406;2022-09-09T07:39:32;3.40;;;3.10;;
68315;SDS011;55508;54.368;18.406;2022-09-09T07:42:00;4.47;;;3.40;;
68315;SDS011;55508;54.368;18.406;2022-09-09T07:44:28;4.38;;;3.17;;
68315;SDS011;55508;54.368;18.406;2022-09-09T07:47:08;3.67;;;2.85;;
68315;SDS011;55508;54.368;18.406;2022-09-09T07:49:40;5.10;;;3.45;;
68315;SDS011;55508;54.368;18.406;2022-09-09T07:52:08;3.25;;;3.05;;
68315;SDS011;55508;54.368;18.406;2022-09-09T07:54:38;3.92;;;3.13;;
68315;SDS011;55508;54.368;18.406;2022-09-09T07:57:06;4.53;;;3.55;;
68315;SDS011;55508;54.368;18.406;2022-09-09T07:59:35;3.35;;;3.03;;
68315;SDS011;55508;54.368;18.406;2022-09-09T08:02:02;2.97;;;2.78;;
68315;SDS011;55508;54.368;18.406;2022-09-09T08:04:32;4.90;;;2.72;;
68315;SDS011;55508;54.368;18.406;2022-09-09T08:07:00;3.08;;;2.88;;
68315;SDS011;55508;54.368;18.406;2022-09-09T08:09:31;3.60;;;3.40;;
68315;SDS011;55508;54.368;18.406;2022-09-09T08:12:08;4.00;;;2.95;;
68315;SDS011;55508;54.368;18.406;2022-09-09T08:14:35;4.28;;;2.92;;
68315;SDS011;55508;54.368;18.406;2022-09-09T08:17:02;2.95;;;2.75;;
68315;SDS011;55508;54.368;18.406;2022-09-09T08:19:31;3.50;;;3.20;;
68315;SDS011;55508;54.368;18.406;2022-09-09T08:22:07;3.10;;;2.90;;
68315;SDS011;55508;54.368;18.406;2022-09-09T08:24:38;6.03;;;3.35;;
68315;SDS011;55508;54.368;18.406;2022-09-09T08:27:06;3.30;;;3.10;;
68315;SDS011;55508;54.368;18.406;2022-09-09T08:29:33;4.88;;;3.08;;
68315;SDS011;55508;54.368;18.406;2022-09-09T08:32:01;3.13;;;2.92;;
68315;SDS011;55508;54.368;18.406;2022-09-09T08:34:29;3.35;;;3.05;;
68315;SDS011;55508;54.368;18.406;2022-09-09T08:37:02;3.33;;;3.00;;
68315;SDS011;55508;54.368;18.406;2022-09-09T08:39:36;2.78;;;2.58;;
68315;SDS011;55508;54.368;18.406;2022-09-09T08:45:02;3.05;;;2.50;;
68315;SDS011;55508;54.368;18.406;2022-09-09T08:50:34;2.95;;;2.35;;
68315;SDS011;55508;54.368;18.406;2022-09-09T08:53:19;2.47;;;2.28;;
68315;SDS011;55508;54.368;18.406;2022-09-09T08:55:54;2.60;;;2.40;;
68315;SDS011;55508;54.368;18.406;2022-09-09T08:58:45;3.00;;;2.80;;
68315;SDS011;55508;54.368;18.406;2022-09-09T09:13:02;3.15;;;2.95;;
68315;SDS011;55508;54.368;18.406;2022-09-09T09:15:33;2.78;;;2.58;;
68315;SDS011;55508;54.368;18.406;2022-09-09T09:18:04;3.78;;;2.38;;
68315;SDS011;55508;54.368;18.406;2022-09-09T09:20:40;2.70;;;2.50;;
68315;SDS011;55508;54.368;18.406;2022-09-09T09:23:24;3.08;;;2.88;;
68315;SDS011;55508;54.368;18.406;2022-09-09T09:28:29;3.53;;;2.30;;
68315;SDS011;55508;54.368;18.406;2022-09-09T09:31:06;4.88;;;2.50;;
68315;SDS011;55508;54.368;18.406;2022-09-09T09:36:13;3.20;;;3.00;;
68315;SDS011;55508;54.368;18.406;2022-09-09T09:38:56;3.67;;;3.38;;
68315;SDS011;55508;54.368;18.406;2022-09-09T09:41:47;4.10;;;3.80;;
68315;SDS011;55508;54.368;18.406;2022-09-09T09:44:21;3.83;;;3.53;;
68315;SDS011;55508;54.368;18.406;2022-09-09T09:49:58;4.10;;;3.80;;
68315;SDS011;55508;54.368;18.406;2022-09-09T09:52:32;3.25;;;3.05;;
68315;SDS011;55508;54.368;18.406;2022-09-09T09:55:03;3.28;;;3.00;;
68315;SDS011;55508;54.368;18.406;2022-09-09T09:57:34;3.00;;;2.80;;
68315;SDS011;55508;54.368;18.406;2022-09-09T10:02:43;3.25;;;3.05;;
68315;SDS011;55508;54.368;18.406;2022-09-09T10:05:24;4.28;;;3.88;;
68315;SDS011;55508;54.368;18.406;2022-09-09T10:08:08;4.10;;;3.50;;
68315;SDS011;55508;54.368;18.406;2022-09-09T10:16:22;4.78;;;4.38;;
68315;SDS011;55508;54.368;18.406;2022-09-09T10:19:00;6.03;;;4.45;;
68315;SDS011;55508;54.368;18.406;2022-09-09T10:21:51;4.65;;;4.35;;
68315;SDS011;55508;54.368;18.406;2022-09-09T10:24:53;5.07;;;4.68;;
68315;SDS011;55508;54.368;18.406;2022-09-09T10:30:20;4.82;;;4.53;;
68315;SDS011;55508;54.368;18.406;2022-09-09T10:33:22;4.75;;;4.38;;
68315;SDS011;55508;54.368;18.406;2022-09-09T10:38:59;5.53;;;5.03;;
68315;SDS011;55508;54.368;18.406;2022-09-09T10:55:14;5.00;;;4.68;;
68315;SDS011;55508;54.368;18.406;2022-09-09T10:57:51;4.78;;;4.47;;
68315;SDS011;55508;54.368;18.406;2022-09-09T11:00:23;4.63;;;4.32;;
68315;SDS011;55508;54.368;18.406;2022-09-09T11:02:57;6.55;;;4.70;;
68315;SDS011;55508;54.368;18.406;2022-09-09T11:08:19;5.45;;;5.05;;
68315;SDS011;55508;54.368;18.406;2022-09-09T11:11:02;5.32;;;4.93;;
68315;SDS011;55508;54.368;18.406;2022-09-09T11:19:42;5.07;;;4.78;;
68315;SDS011;55508;54.368;18.406;2022-09-09T11:25:02;5.30;;;4.90;;
68315;SDS011;55508;54.368;18.406;2022-09-09T11:36:19;5.95;;;5.55;;
68315;SDS011;55508;54.368;18.406;2022-09-09T11:42:12;5.88;;;5.47;;
68315;SDS011;55508;54.368;18.406;2022-09-09T11:44:44;6.10;;;5.70;;
68315;SDS011;55508;54.368;18.406;2022-09-09T11:50:07;5.90;;;5.50;;
68315;SDS011;55508;54.368;18.406;2022-09-09T11:52:46;5.95;;;5.45;;
68315;SDS011;55508;54.368;18.406;2022-09-09T11:55:31;6.00;;;5.45;;
68315;SDS011;55508;54.368;18.406;2022-09-09T11:58:03;6.43;;;5.93;;
68315;SDS011;55508;54.368;18.406;2022-09-09T12:00:33;7.30;;;6.80;;
68315;SDS011;55508;54.368;18.406;2022-09-09T12:05:59;6.80;;;6.32;;
68315;SDS011;55508;54.368;18.406;2022-09-09T12:08:46;7.38;;;6.88;;
68315;SDS011;55508;54.368;18.406;2022-09-09T12:11:24;8.45;;;7.65;;
68315;SDS011;55508;54.368;18.406;2022-09-09T12:13:56;7.35;;;6.85;;
68315;SDS011;55508;54.368;18.406;2022-09-09T12:16:30;7.53;;;6.95;;
68315;SDS011;55508;54.368;18.406;2022-09-09T12:21:37;7.80;;;7.20;;
68315;SDS011;55508;54.368;18.406;2022-09-09T12:24:43;7.90;;;7.30;;
68315;SDS011;55508;54.368;18.406;2022-09-09T12:29:51;7.82;;;7.32;;
68315;SDS011;55508;54.368;18.406;2022-09-09T12:32:24;8.48;;;7.97;;
68315;SDS011;55508;54.368;18.406;2022-09-09T12:37:38;8.88;;;8.27;;
68315;SDS011;55508;54.368;18.406;2022-09-09T12:40:22;7.43;;;6.93;;
68315;SDS011;55508;54.368;18.406;2022-09-09T12:42:54;7.03;;;6.63;;
68315;SDS011;55508;54.368;18.406;2022-09-09T12:45:22;7.75;;;7.25;;
68315;SDS011;55508;54.368;18.406;2022-09-09T12:47:58;8.43;;;7.70;;
68315;SDS011;55508;54.368;18.406;2022-09-09T12:50:31;7.95;;;7.45;;
68315;SDS011;55508;54.368;18.406;2022-09-09T12:53:04;7.82;;;7.32;;
68315;SDS011;55508;54.368;18.406;2022-09-09T12:55:38;8.45;;;7.88;;
68315;SDS011;55508;54.368;18.406;2022-09-09T12:58:05;9.02;;;8.18;;
68315;SDS011;55508;54.368;18.406;2022-09-09T13:00:33;7.35;;;6.95;;
68315;SDS011;55508;54.368;18.406;2022-09-09T13:03:02;7.18;;;6.78;;
68315;SDS011;55508;54.368;18.406;2022-09-09T13:05:40;7.05;;;6.55;;
68315;SDS011;55508;54.368;18.406;2022-09-09T13:08:10;7.97;;;7.47;;
68315;SDS011;55508;54.368;18.406;2022-09-09T13:10:40;7.82;;;7.32;;
68315;SDS011;55508;54.368;18.406;2022-09-09T13:13:25;7.60;;;7.03;;
68315;SDS011;55508;54.368;18.406;2022-09-09T13:15:54;7.18;;;6.38;;
68315;SDS011;55508;54.368;18.406;2022-09-09T13:18:24;7.38;;;6.88;;
68315;SDS011;55508;54.368;18.406;2022-09-09T13:20:55;7.50;;;7.00;;
68315;SDS011;55508;54.368;18.406;2022-09-09T13:23:28;8.10;;;7.50;;
68315;SDS011;55508;54.368;18.406;2022-09-09T13:25:58;7.95;;;7.47;;
68315;SDS011;55508;54.368;18.406;2022-09-09T13:28:34;8.50;;;8.00;;
68315;SDS011;55508;54.368;18.406;2022-09-09T13:31:05;9.25;;;8.50;;
68315;SDS011;55508;54.368;18.406;2022-09-09T13:33:45;10.25;;;9.25;;
68315;SDS011;55508;54.368;18.406;2022-09-09T13:36:12;9.70;;;9.05;;
68315;SDS011;55508;54.368;18.406;2022-09-09T13:38:55;10.17;;;9.37;;
68315;SDS011;55508;54.368;18.406;2022-09-09T13:41:24;9.68;;;8.90;;
68315;SDS011;55508;54.368;18.406;2022-09-09T13:43:54;10.45;;;9.75;;
68315;SDS011;55508;54.368;18.406;2022-09-09T13:51:49;10.70;;;9.90;;
68315;SDS011;55508;54.368;18.406;2022-09-09T13:54:18;11.13;;;10.27;;
68315;SDS011;55508;54.368;18.406;2022-09-09T13:56:46;12.45;;;11.38;;
68315;SDS011;55508;54.368;18.406;2022-09-09T13:59:17;12.15;;;11.18;;
68315;SDS011;55508;54.368;18.406;2022-09-09T14:01:47;12.25;;;11.20;;
68315;SDS011;55508;54.368;18.406;2022-09-09T14:04:19;13.30;;;12.02;;
68315;SDS011;55508;54.368;18.406;2022-09-09T14:06:49;13.50;;;12.20;;
68315;SDS011;55508;54.368;18.406;2022-09-09T14:09:17;13.93;;;12.85;;
68315;SDS011;55508;54.368;18.406;2022-09-09T14:11:44;15.00;;;12.98;;
68315;SDS011;55508;54.368;18.406;2022-09-09T14:14:14;14.85;;;13.55;;
68315;SDS011;55508;54.368;18.406;2022-09-09T14:16:41;18.70;;;14.40;;
68315;SDS011;55508;54.368;18.406;2022-09-09T14:19:09;15.27;;;13.90;;
68315;SDS011;55508;54.368;18.406;2022-09-09T14:21:36;15.00;;;13.80;;
68315;SDS011;55508;54.368;18.406;2022-09-09T14:24:03;15.85;;;14.35;;
68315;SDS011;55508;54.368;18.406;2022-09-09T14:26:31;15.02;;;13.70;;
68315;SDS011;55508;54.368;18.406;2022-09-09T14:28:58;15.45;;;14.05;;
68315;SDS011;55508;54.368;18.406;2022-09-09T14:31:28;15.05;;;13.73;;
68315;SDS011;55508;54.368;18.406;2022-09-09T14:33:55;15.32;;;13.93;;
68315;SDS011;55508;54.368;18.406;2022-09-09T14:36:22;16.52;;;14.98;;
68315;SDS011;55508;54.368;18.406;2022-09-09T14:38:50;16.88;;;15.27;;
68315;SDS011;55508;54.368;18.406;2022-09-09T14:41:18;15.85;;;14.25;;
68315;SDS011;55508;54.368;18.406;2022-09-09T14:43:49;17.67;;;15.82;;
68315;SDS011;55508;54.368;18.406;2022-09-09T14:46:17;15.65;;;14.35;;
68315;SDS011;55508;54.368;18.406;2022-09-09T14:48:45;16.95;;;15.40;;
68315;SDS011;55508;54.368;18.406;2022-09-09T14:51:16;16.95;;;15.55;;
68315;SDS011;55508;54.368;18.406;2022-09-09T14:53:46;18.77;;;16.75;;
68315;SDS011;55508;54.368;18.406;2022-09-09T14:56:17;18.85;;;16.27;;
68315;SDS011;55508;54.368;18.406;2022-09-09T14:58:45;17.05;;;15.55;;
68315;SDS011;55508;54.368;18.406;2022-09-09T15:01:13;19.02;;;17.10;;
68315;SDS011;55508;54.368;18.406;2022-09-09T15:03:42;23.65;;;17.17;;
68315;SDS011;55508;54.368;18.406;2022-09-09T15:06:16;18.23;;;16.23;;
68315;SDS011;55508;54.368;18.406;2022-09-09T15:08:44;19.00;;;16.30;;
68315;SDS011;55508;54.368;18.406;2022-09-09T15:11:12;19.33;;;16.67;;
68315;SDS011;55508;54.368;18.406;2022-09-09T15:13:40;23.60;;;16.20;;
68315;SDS011;55508;54.368;18.406;2022-09-09T15:16:11;17.92;;;16.13;;
68315;SDS011;55508;54.368;18.406;2022-09-09T15:18:45;17.08;;;15.52;;
68315;SDS011;55508;54.368;18.406;2022-09-09T15:21:17;19.10;;;17.08;;
68315;SDS011;55508;54.368;18.406;2022-09-09T15:23:48;18.20;;;16.33;;
68315;SDS011;55508;54.368;18.406;2022-09-09T15:26:15;22.42;;;18.02;;
68315;SDS011;55508;54.368;18.406;2022-09-09T15:28:43;21.42;;;17.73;;
68315;SDS011;55508;54.368;18.406;2022-09-09T15:31:19;19.58;;;17.50;;
68315;SDS011;55508;54.368;18.406;2022-09-09T15:33:50;24.05;;;18.35;;
68315;SDS011;55508;54.368;18.406;2022-09-09T15:36:22;20.63;;;18.02;;
68315;SDS011;55508;54.368;18.406;2022-09-09T15:38:51;20.88;;;18.48;;
68315;SDS011;55508;54.368;18.406;2022-09-09T15:41:18;22.88;;;19.95;;
68315;SDS011;55508;54.368;18.406;2022-09-09T15:43:47;21.25;;;18.50;;
68315;SDS011;55508;54.368;18.406;2022-09-09T15:48:44;24.67;;;19.10;;
68315;SDS011;55508;54.368;18.406;2022-09-09T15:51:14;27.60;;;20.63;;
68315;SDS011;55508;54.368;18.406;2022-09-09T15:54:01;27.85;;;20.75;;
68315;SDS011;55508;54.368;18.406;2022-09-09T15:56:28;28.98;;;21.38;;
68315;SDS011;55508;54.368;18.406;2022-09-09T15:59:02;29.85;;;22.15;;
68315;SDS011;55508;54.368;18.406;2022-09-09T16:01:30;33.58;;;22.98;;
68315;SDS011;55508;54.368;18.406;2022-09-09T16:03:58;36.75;;;23.67;;
68315;SDS011;55508;54.368;18.406;2022-09-09T16:06:27;35.15;;;22.75;;
68315;SDS011;55508;54.368;18.406;2022-09-09T16:08:55;35.30;;;23.98;;
68315;SDS011;55508;54.368;18.406;2022-09-09T16:11:29;39.47;;;23.98;;
68315;SDS011;55508;54.368;18.406;2022-09-09T16:13:57;39.28;;;25.13;;
68315;SDS011;55508;54.368;18.406;2022-09-09T16:16:26;40.67;;;25.08;;
68315;SDS011;55508;54.368;18.406;2022-09-09T16:18:59;44.97;;;25.23;;
68315;SDS011;55508;54.368;18.406;2022-09-09T16:21:29;38.30;;;25.30;;
68315;SDS011;55508;54.368;18.406;2022-09-09T16:24:04;39.00;;;24.67;;
68315;SDS011;55508;54.368;18.406;2022-09-09T16:26:33;19.30;;;17.25;;
68315;SDS011;55508;54.368;18.406;2022-09-09T16:29:01;26.17;;;20.55;;
68315;SDS011;55508;54.368;18.406;2022-09-09T16:31:29;33.78;;;23.63;;
68315;SDS011;55508;54.368;18.406;2022-09-09T16:33:58;39.80;;;25.30;;
68315;SDS011;55508;54.368;18.406;2022-09-09T16:36:27;39.30;;;24.73;;
68315;SDS011;55508;54.368;18.406;2022-09-09T16:38:57;54.50;;;27.92;;
68315;SDS011;55508;54.368;18.406;2022-09-09T16:41:26;52.38;;;28.38;;
68315;SDS011;55508;54.368;18.406;2022-09-09T16:43:55;43.28;;;26.83;;
68315;SDS011;55508;54.368;18.406;2022-09-09T16:46:23;48.67;;;28.23;;
68315;SDS011;55508;54.368;18.406;2022-09-09T16:48:51;46.30;;;27.40;;
68315;SDS011;55508;54.368;18.406;2022-09-09T16:51:20;50.22;;;29.00;;
68315;SDS011;55508;54.368;18.406;2022-09-09T16:53:50;44.90;;;28.87;;
68315;SDS011;55508;54.368;18.406;2022-09-09T16:56:19;40.78;;;27.92;;
68315;SDS011;55508;54.368;18.406;2022-09-09T16:58:53;67.28;;;32.15;;
68315;SDS011;55508;54.368;18.406;2022-09-09T17:01:22;56.00;;;28.45;;
68315;SDS011;55508;54.368;18.406;2022-09-09T17:03:54;59.47;;;29.60;;
68315;SDS011;55508;54.368;18.406;2022-09-09T17:06:27;96.10;;;32.90;;
68315;SDS011;55508;54.368;18.406;2022-09-09T17:08:59;93.40;;;34.53;;
68315;SDS011;55508;54.368;18.406;2022-09-09T17:11:28;109.85;;;38.42;;
68315;SDS011;55508;54.368;18.406;2022-09-09T17:13:56;70.97;;;32.25;;
68315;SDS011;55508;54.368;18.406;2022-09-09T17:16:25;91.38;;;34.47;;
68315;SDS011;55508;54.368;18.406;2022-09-09T17:18:54;68.78;;;33.78;;
68315;SDS011;55508;54.368;18.406;2022-09-09T17:21:22;130.07;;;38.78;;
68315;SDS011;55508;54.368;18.406;2022-09-09T17:23:52;115.05;;;36.28;;
68315;SDS011;55508;54.368;18.406;2022-09-09T17:26:21;115.07;;;37.35;;
68315;SDS011;55508;54.368;18.406;2022-09-09T17:28:49;208.90;;;47.67;;